• Join FlightAware (Why Join?)
  • Login
  • US Flag 
04:59AM EDT


 

Airport Tracker/Info


-or-


 

Live Flight TrackerFlight Track Log ✈ N5605P ✈ 16-Feb-2014 ✈ KBCB - KTTN

Flight Track Log - Related Links

Times and Time Zones

All times are in EST time to prevent confusion due to time zone crossing. See the N5605P flight status page for this flight to view local times or setup timezone preferences in your user account.

Time Position Orientation Groundspeed Altitude Reporting Facility
EST Latitude Longitude Course Direction KTS MPH feet Rate Location/Type
01:42PM 37.4272 -80.1033 53° Northeast 161 185 5,000  Level Washington Center
01:43PM 37.3353 -80.1582 53° Northeast  Level FlightAware Approximate
01:43PM 37.4578 -80.0631 46° Northeast 155 178 4,900  Level Washington Center
01:44PM 37.3595 -80.1180 53° Northeast  Level FlightAware Approximate
01:44PM 37.4844 -80.0228 50° Northeast 149 171 5,000  Level Washington Center
01:45PM 37.3837 -80.0776 53° Northeast  Level FlightAware Approximate
01:45PM 37.5175 -79.9750 49° Northeast 154 177 4,900  Level Washington Center
01:46PM 37.4078 -80.0373 53° Northeast  Level FlightAware Approximate
01:46PM 37.5458 -79.9400 44° Northeast 154 177 5,000  Level Washington Center
01:47PM 37.5764 -79.9050 42° Northeast 149 171 5,000  Level Washington Center
01:48PM 37.6008 -79.8592 56° Northeast 149 171 5,000  Level Washington Center
01:49PM 37.6272 -79.8267 44° Northeast 149 171 5,100 -300 Climbing Washington Center
01:50PM 37.6536 -79.7889 49° Northeast 149 171 4,500 -360 Descending Washington Center
01:51PM 37.6819 -79.7511 47° Northeast 149 171 4,500  Level Washington Center
01:52PM 37.6864 -79.7433 54° Northeast 149 171 4,500 180 Level Washington Center
01:53PM 37.7392 -79.6594 51° Northeast 124 143 4,900 360 Climbing Washington Center
01:54PM 37.7656 -79.6242 47° Northeast 135 155 5,300 300 Climbing Washington Center
01:55PM 37.7897 -79.5886 49° Northeast 135 155 5,600 480 Climbing Washington Center
01:56PM 37.8142 -79.5453 54° Northeast 130 150 6,300 420 Climbing Washington Center
01:57PM 37.8361 -79.5069 54° Northeast 130 150 6,500 240 Climbing Washington Center
01:58PM 37.8603 -79.4714 49° Northeast 130 150 6,800 300 Climbing Washington Center
01:59PM 37.8864 -79.4333 49° Northeast 130 150 7,200 360 Climbing Washington Center
02:00PM 37.9106 -79.3950 51° Northeast 135 155 7,600 240 Climbing Washington Center
02:01PM 37.9369 -79.3569 49° Northeast 141 162 7,700 240 Climbing Washington Center
02:02PM 37.9611 -79.3214 49° Northeast 141 162 8,100 300 Climbing Washington Center
02:03PM 37.9869 -79.2908 43° Northeast 129 148 8,400 360 Climbing Washington Center
02:04PM 38.0108 -79.2578 47° Northeast 129 148 8,900 480 Climbing Washington Center
02:05PM 38.0347 -79.2272 45° Northeast 129 148 9,400 300 Climbing Washington Center
02:06PM 38.0631 -79.1919 44° Northeast 129 148 9,600 60 Climbing Washington Center
02:07PM 38.0911 -79.1536 47° Northeast 129 148 9,600 -60 Level Washington Center
02:09PM 38.1667 -79.0667 42° Northeast 153 176 9,400 60 Descending Potomac TRACON
02:10PM 38.1833 -79.0167 67° East 140 161 9,900 600 Climbing Potomac TRACON
02:11PM 38.2167 -78.9833 38° Northeast 126 145 10,700 600 Climbing Potomac TRACON
02:12PM 38.2333 -78.9667 38° Northeast 127 146 11,200 420 Climbing Potomac TRACON
02:13PM 38.2494 -78.9469 44° Northeast 124 143 11,400 180 Climbing Washington Center
02:14PM 38.2733 -78.9136 48° Northeast 119 137 11,500  Climbing Washington Center
02:15PM 38.3056 -78.8753 43° Northeast 125 144 11,500  Level Washington Center
02:16PM 38.3319 -78.8317 52° Northeast 130 150 11,500  Level Washington Center
02:17PM 38.3600 -78.7956 45° Northeast 137 158 11,600 120 Climbing Washington Center
02:18PM 38.3858 -78.7597 47° Northeast 137 158 11,800  Climbing Washington Center
02:19PM 38.4161 -78.7214 45° Northeast 137 158 11,700 -180 Descending Washington Center
02:20PM 38.4442 -78.6828 47° Northeast 137 158 11,500 -180 Descending Washington Center
02:21PM 38.4744 -78.6442 45° Northeast 137 158 11,400 -120 Descending Washington Center
02:22PM 38.5025 -78.6081 45° Northeast 142 163 11,300  Descending Washington Center
02:23PM 38.5306 -78.5694 47° Northeast 142 163 11,400 60 Climbing Washington Center
02:24PM 38.5564 -78.5361 45° Northeast 142 163 11,500 120 Climbing Washington Center
02:25PM 38.5844 -78.4972 47° Northeast 142 163 11,700 60 Climbing Washington Center
02:26PM 38.6144 -78.4586 45° Northeast 142 163 11,700 -60 Level Washington Center
02:27PM 38.6447 -78.4147 49° Northeast 142 163 11,600 -180 Descending Washington Center
02:28PM 38.6769 -78.3733 45° Northeast 147 169 11,400 -60 Descending Washington Center
02:29PM 38.7069 -78.3344 45° Northeast 147 169 11,500 60 Climbing Washington Center
02:30PM 38.7350 -78.2956 47° Northeast 147 169 11,600 60 Climbing Washington Center
02:31PM 38.7631 -78.2567 47° Northeast 147 169 11,700 120 Climbing Washington Center
02:32PM 38.7931 -78.2206 43° Northeast 147 169 11,900 180 Climbing Washington Center
02:33PM 38.8208 -78.1842 46° Northeast 147 169 12,100 120 Climbing Washington Center
02:34PM 38.8489 -78.1425 49° Northeast 147 169 12,200 120 Climbing Washington Center
02:36PM 38.9000 -78.0667 49° Northeast 156 180 12,500 60 Climbing Potomac TRACON
02:37PM 38.9333 -78.0167 49° Northeast 159 183 12,500  Level Potomac TRACON
02:38PM 38.9667 -77.9833 38° Northeast 157 181 12,600  Climbing Potomac TRACON
02:39PM 39.0000 -77.9333 49° Northeast 158 182 12,600  Level Potomac TRACON
02:40PM 39.0333 -77.9000 38° Northeast 157 181 12,600  Level Potomac TRACON
02:41PM 39.0500 -77.8667 57° Northeast 158 182 12,600  Level Potomac TRACON
02:42PM 39.0833 -77.8167 49° Northeast 159 183 12,600  Level Potomac TRACON
02:43PM 39.1167 -77.7833 38° Northeast 158 182 12,600  Level Potomac TRACON
02:44PM 39.1500 -77.7333 49° Northeast 161 185 12,600  Level Potomac TRACON
02:45PM 39.1833 -77.6833 49° Northeast 170 196 12,600  Level Potomac TRACON
02:46PM 39.2000 -77.6333 67° East 174 200 12,700  Climbing Potomac TRACON
02:47PM 39.2167 -77.5833 67° East 178 205 12,600 -120 Descending Potomac TRACON
02:48PM 39.2333 -77.5167 72° East 174 200 12,500 -240 Descending Potomac TRACON
02:49PM 39.2667 -77.4667 49° Northeast 182 209 12,200 -300 Descending Potomac TRACON
02:50PM 39.2833 -77.4000 72° East 178 205 11,900 -360 Descending Potomac TRACON
02:51PM 39.3000 -77.3500 67° East 181 208 11,500 -420 Descending Potomac TRACON
02:52PM 39.3333 -77.3000 49° Northeast 183 211 11,100 -420 Descending Potomac TRACON
02:53PM 39.3500 -77.2500 67° East 180 207 10,800 -420 Descending Potomac TRACON
02:54PM 39.3667 -77.1833 72° East 184 212 10,400 -360 Descending Potomac TRACON
02:55PM 39.4000 -77.1333 49° Northeast 184 212 10,100 -300 Descending Potomac TRACON
02:56PM 39.4333 -77.0833 49° Northeast 171 197 9,800 -240 Descending Potomac TRACON
02:57PM 39.4667 -77.0667 21° North 166 191 9,700 -180 Descending Potomac TRACON
02:58PM 39.5000 -77.0000 57° Northeast 188 216 9,500 -120 Descending Potomac TRACON
02:59PM 39.5167 -76.9500 67° East 181 208 9,500 -60 Level Potomac TRACON
03:00PM 39.5333 -76.8833 72° East 177 204 9,400 -60 Descending Potomac TRACON
03:01PM 39.5500 -76.8333 67° East 175 201 9,400  Level Potomac TRACON
03:03PM 39.5986 -76.7203 61° Northeast 194 223 9,500 -120 Climbing New York Center
03:04PM 39.6200 -76.6653 63° Northeast 176 203 9,100 -480 Descending New York Center
03:05PM 39.6419 -76.6053 65° Northeast 170 196 8,600 -420 Descending New York Center
03:06PM 39.6636 -76.5450 65° Northeast 175 201 8,300 -420 Descending New York Center
03:07PM 39.6853 -76.4872 64° Northeast 175 201 7,800 -360 Descending New York Center
03:08PM 39.7069 -76.4269 65° Northeast 175 201 7,600 -240 Descending New York Center
03:09PM 39.7283 -76.3694 64° Northeast 175 201 7,400 -300 Descending New York Center
03:10PM 39.7497 -76.3144 63° Northeast 175 201 7,000 -420 Descending New York Center
03:11PM 39.7692 -76.2539 67° East 170 196 6,600 -480 Descending New York Center
03:12PM 39.7906 -76.1986 63° Northeast 175 201 6,100 -480 Descending New York Center
03:13PM 39.8078 -76.1433 68° East 170 196 5,700 -300 Descending New York Center
03:14PM 39.8311 -76.0883 61° Northeast 160 184 5,600 -60 Descending New York Center
03:15PM 39.8458 -76.0353 70° East 155 178 5,600  Level New York Center
03:16PM 39.8644 -75.9906 62° Northeast 155 178 5,600  Level New York Center
03:17PM 39.8814 -75.9378 67° East 155 178 5,600 -60 Level New York Center
03:18PM 39.9028 -75.8825 63° Northeast 150 173 5,500 -60 Descending New York Center
03:19PM 39.9194 -75.8297 68° East 150 173 5,500  Level New York Center
03:20PM 39.9383 -75.7797 64° Northeast 150 173 5,600  Climbing New York Center
03:21PM 39.9553 -75.7239 68° East 150 173 5,600  Level New York Center
03:22PM 39.9764 -75.6686 63° Northeast 150 173 5,600  Level New York Center
03:23PM 39.9953 -75.6156 65° Northeast 155 178 5,600  Level New York Center
03:24PM 40.0142 -75.5600 66° East 155 178 5,600 -120 Level New York Center
03:26PM 40.0500 -75.4500 67° East 175 201 5,300 -300 Descending Philadelphia TRACON
03:27PM 40.0833 -75.3833 57° Northeast 174 200 4,700 -540 Descending Philadelphia TRACON
03:28PM 40.1000 -75.3333 66° East 169 194 4,300 -480 Descending Philadelphia TRACON
03:29PM 40.1167 -75.2833 66° East 160 184 3,900 -360 Descending Philadelphia TRACON
03:30PM 40.1333 -75.2333 66° East 154 177 3,700 -240 Descending Philadelphia TRACON
03:31PM 40.1500 -75.1833 66° East 149 171 3,500 -240 Descending Philadelphia TRACON
03:32PM 40.1667 -75.1333 66° East 141 162 3,300 -180 Descending Philadelphia TRACON
03:33PM 40.1833 -75.0833 66° East 140 161 3,200 -120 Descending Philadelphia TRACON
03:35PM 40.2027 -74.9893 72° East  Level FlightAware Approximate
03:42PM 40.2667 -74.8000 62° Northeast  Level FlightAware Approximate
03:43PM 40.2767 -74.8135 62° Northeast  Level Estimated
03:44PM 40.2767 -74.8135 62° Northeast  Level Estimated